sensor_id;sensor_type;location;lat;lon;timestamp;P1;durP1;ratioP1;P2;durP2;ratioP2
35757;SDS011;21879;50.110;18.900;2024-03-29T00:05:14;1.70;;;0.90;;
35757;SDS011;21879;50.110;18.900;2024-03-29T00:15:22;2.00;;;1.00;;
35757;SDS011;21879;50.110;18.900;2024-03-29T00:25:29;1.60;;;0.90;;
35757;SDS011;21879;50.110;18.900;2024-03-29T00:35:36;1.30;;;1.00;;
35757;SDS011;21879;50.110;18.900;2024-03-29T00:45:42;1.30;;;0.90;;
35757;SDS011;21879;50.110;18.900;2024-03-29T00:55:49;2.10;;;1.00;;
35757;SDS011;21879;50.110;18.900;2024-03-29T01:05:56;1.10;;;0.80;;
35757;SDS011;21879;50.110;18.900;2024-03-29T01:16:02;1.10;;;0.80;;
35757;SDS011;21879;50.110;18.900;2024-03-29T01:26:09;1.50;;;0.80;;
35757;SDS011;21879;50.110;18.900;2024-03-29T01:36:34;1.40;;;0.90;;
35757;SDS011;21879;50.110;18.900;2024-03-29T01:46:40;1.30;;;0.70;;
35757;SDS011;21879;50.110;18.900;2024-03-29T01:56:48;1.30;;;0.80;;
35757;SDS011;21879;50.110;18.900;2024-03-29T02:06:55;1.90;;;1.20;;
35757;SDS011;21879;50.110;18.900;2024-03-29T02:17:02;1.90;;;1.20;;
35757;SDS011;21879;50.110;18.900;2024-03-29T02:27:09;1.80;;;1.10;;
35757;SDS011;21879;50.110;18.900;2024-03-29T02:37:15;1.80;;;1.40;;
35757;SDS011;21879;50.110;18.900;2024-03-29T02:47:22;1.60;;;0.80;;
35757;SDS011;21879;50.110;18.900;2024-03-29T02:57:29;1.20;;;0.70;;
35757;SDS011;21879;50.110;18.900;2024-03-29T03:07:35;1.70;;;0.90;;
35757;SDS011;21879;50.110;18.900;2024-03-29T03:18:00;1.20;;;0.90;;
35757;SDS011;21879;50.110;18.900;2024-03-29T03:28:07;1.00;;;0.80;;
35757;SDS011;21879;50.110;18.900;2024-03-29T03:38:14;1.40;;;0.70;;
35757;SDS011;21879;50.110;18.900;2024-03-29T03:48:21;1.10;;;0.80;;
35757;SDS011;21879;50.110;18.900;2024-03-29T03:58:28;1.00;;;0.60;;
35757;SDS011;21879;50.110;18.900;2024-03-29T04:08:35;2.50;;;0.90;;
35757;SDS011;21879;50.110;18.900;2024-03-29T04:18:42;1.00;;;0.70;;
35757;SDS011;21879;50.110;18.900;2024-03-29T04:28:49;1.60;;;1.10;;
35757;SDS011;21879;50.110;18.900;2024-03-29T04:38:55;1.50;;;0.90;;
35757;SDS011;21879;50.110;18.900;2024-03-29T04:49:02;1.30;;;1.10;;
35757;SDS011;21879;50.110;18.900;2024-03-29T04:59:08;0.70;;;0.60;;
35757;SDS011;21879;50.110;18.900;2024-03-29T05:09:15;1.50;;;0.90;;
35757;SDS011;21879;50.110;18.900;2024-03-29T05:19:22;1.70;;;0.80;;
35757;SDS011;21879;50.110;18.900;2024-03-29T05:29:28;1.40;;;0.80;;
35757;SDS011;21879;50.110;18.900;2024-03-29T05:39:35;1.30;;;0.80;;
35757;SDS011;21879;50.110;18.900;2024-03-29T05:49:41;1.70;;;1.10;;
35757;SDS011;21879;50.110;18.900;2024-03-29T05:59:48;1.30;;;1.00;;
35757;SDS011;21879;50.110;18.900;2024-03-29T06:09:56;1.40;;;0.80;;
35757;SDS011;21879;50.110;18.900;2024-03-29T06:30:26;3.00;;;1.40;;
35757;SDS011;21879;50.110;18.900;2024-03-29T06:40:33;5.10;;;3.20;;
35757;SDS011;21879;50.110;18.900;2024-03-29T06:50:40;10.00;;;7.50;;
35757;SDS011;21879;50.110;18.900;2024-03-29T07:00:47;11.70;;;10.40;;
35757;SDS011;21879;50.110;18.900;2024-03-29T07:11:00;11.10;;;8.00;;
35757;SDS011;21879;50.110;18.900;2024-03-29T07:21:07;10.40;;;7.60;;
35757;SDS011;21879;50.110;18.900;2024-03-29T07:31:15;15.20;;;11.20;;
35757;SDS011;21879;50.110;18.900;2024-03-29T07:41:21;11.80;;;9.90;;
35757;SDS011;21879;50.110;18.900;2024-03-29T07:51:28;11.10;;;7.90;;
35757;SDS011;21879;50.110;18.900;2024-03-29T08:01:35;11.00;;;8.30;;
35757;SDS011;21879;50.110;18.900;2024-03-29T08:11:44;10.00;;;7.40;;
35757;SDS011;21879;50.110;18.900;2024-03-29T08:21:51;8.60;;;6.90;;
35757;SDS011;21879;50.110;18.900;2024-03-29T08:31:58;9.00;;;6.10;;
35757;SDS011;21879;50.110;18.900;2024-03-29T08:42:05;7.80;;;5.20;;
35757;SDS011;21879;50.110;18.900;2024-03-29T08:52:15;6.50;;;4.30;;
35757;SDS011;21879;50.110;18.900;2024-03-29T09:12:46;6.00;;;3.90;;
35757;SDS011;21879;50.110;18.900;2024-03-29T09:22:53;5.00;;;3.10;;
35757;SDS011;21879;50.110;18.900;2024-03-29T09:33:00;5.50;;;3.40;;
35757;SDS011;21879;50.110;18.900;2024-03-29T09:43:10;4.80;;;2.60;;
35757;SDS011;21879;50.110;18.900;2024-03-29T09:53:34;7.20;;;4.30;;
35757;SDS011;21879;50.110;18.900;2024-03-29T10:03:42;6.10;;;3.10;;
35757;SDS011;21879;50.110;18.900;2024-03-29T10:13:53;3.90;;;2.50;;
35757;SDS011;21879;50.110;18.900;2024-03-29T10:24:00;3.30;;;2.10;;
35757;SDS011;21879;50.110;18.900;2024-03-29T10:34:15;2.70;;;1.90;;
35757;SDS011;21879;50.110;18.900;2024-03-29T10:44:22;2.20;;;1.30;;
35757;SDS011;21879;50.110;18.900;2024-03-29T10:54:31;3.50;;;1.50;;
35757;SDS011;21879;50.110;18.900;2024-03-29T11:04:59;2.60;;;1.50;;
35757;SDS011;21879;50.110;18.900;2024-03-29T11:15:12;2.60;;;1.30;;
35757;SDS011;21879;50.110;18.900;2024-03-29T11:25:24;2.20;;;1.00;;
35757;SDS011;21879;50.110;18.900;2024-03-29T11:35:31;2.90;;;1.00;;
35757;SDS011;21879;50.110;18.900;2024-03-29T11:45:37;1.00;;;0.90;;
35757;SDS011;21879;50.110;18.900;2024-03-29T11:55:44;1.90;;;1.00;;
35757;SDS011;21879;50.110;18.900;2024-03-29T12:05:53;2.00;;;0.70;;
35757;SDS011;21879;50.110;18.900;2024-03-29T12:16:02;0.90;;;0.60;;
35757;SDS011;21879;50.110;18.900;2024-03-29T12:26:11;1.00;;;0.60;;
35757;SDS011;21879;50.110;18.900;2024-03-29T12:36:19;1.20;;;0.50;;
35757;SDS011;21879;50.110;18.900;2024-03-29T12:46:30;0.80;;;0.50;;
35757;SDS011;21879;50.110;18.900;2024-03-29T12:56:37;2.10;;;0.70;;
35757;SDS011;21879;50.110;18.900;2024-03-29T13:06:46;1.90;;;0.50;;
35757;SDS011;21879;50.110;18.900;2024-03-29T13:16:52;1.40;;;0.50;;
35757;SDS011;21879;50.110;18.900;2024-03-29T13:26:59;0.40;;;0.40;;
35757;SDS011;21879;50.110;18.900;2024-03-29T13:37:07;1.40;;;0.80;;
35757;SDS011;21879;50.110;18.900;2024-03-29T13:47:13;1.40;;;0.60;;
35757;SDS011;21879;50.110;18.900;2024-03-29T13:57:22;1.90;;;0.90;;
35757;SDS011;21879;50.110;18.900;2024-03-29T14:07:29;1.30;;;0.80;;
35757;SDS011;21879;50.110;18.900;2024-03-29T14:17:35;1.00;;;0.60;;
35757;SDS011;21879;50.110;18.900;2024-03-29T14:27:42;2.20;;;0.60;;
35757;SDS011;21879;50.110;18.900;2024-03-29T14:38:06;1.80;;;0.70;;
35757;SDS011;21879;50.110;18.900;2024-03-29T14:48:13;1.70;;;0.60;;
35757;SDS011;21879;50.110;18.900;2024-03-29T14:58:25;2.50;;;0.80;;
35757;SDS011;21879;50.110;18.900;2024-03-29T15:08:31;3.40;;;0.80;;
35757;SDS011;21879;50.110;18.900;2024-03-29T15:18:38;3.40;;;1.10;;
35757;SDS011;21879;50.110;18.900;2024-03-29T15:29:03;1.60;;;1.00;;
35757;SDS011;21879;50.110;18.900;2024-03-29T15:39:14;2.90;;;1.10;;
35757;SDS011;21879;50.110;18.900;2024-03-29T15:49:24;2.60;;;1.20;;
35757;SDS011;21879;50.110;18.900;2024-03-29T15:59:47;1.50;;;0.90;;
35757;SDS011;21879;50.110;18.900;2024-03-29T16:09:54;2.30;;;1.30;;
35757;SDS011;21879;50.110;18.900;2024-03-29T16:20:07;3.80;;;0.90;;
35757;SDS011;21879;50.110;18.900;2024-03-29T16:30:15;3.30;;;1.20;;
35757;SDS011;21879;50.110;18.900;2024-03-29T16:40:24;2.70;;;1.40;;
35757;SDS011;21879;50.110;18.900;2024-03-29T16:50:48;3.30;;;1.40;;
35757;SDS011;21879;50.110;18.900;2024-03-29T17:00:54;4.60;;;1.40;;
35757;SDS011;21879;50.110;18.900;2024-03-29T17:11:02;3.50;;;1.30;;
35757;SDS011;21879;50.110;18.900;2024-03-29T17:21:09;6.90;;;5.00;;
35757;SDS011;21879;50.110;18.900;2024-03-29T17:31:16;6.20;;;5.20;;
35757;SDS011;21879;50.110;18.900;2024-03-29T17:41:22;7.40;;;5.10;;
35757;SDS011;21879;50.110;18.900;2024-03-29T17:51:29;5.70;;;3.50;;
35757;SDS011;21879;50.110;18.900;2024-03-29T18:01:36;7.80;;;6.20;;
35757;SDS011;21879;50.110;18.900;2024-03-29T18:11:43;6.20;;;5.60;;
35757;SDS011;21879;50.110;18.900;2024-03-29T18:21:50;7.20;;;5.80;;
35757;SDS011;21879;50.110;18.900;2024-03-29T18:31:58;12.70;;;11.60;;
35757;SDS011;21879;50.110;18.900;2024-03-29T18:42:05;24.30;;;13.90;;
35757;SDS011;21879;50.110;18.900;2024-03-29T18:52:11;18.50;;;13.90;;
35757;SDS011;21879;50.110;18.900;2024-03-29T19:02:18;27.60;;;19.90;;
35757;SDS011;21879;50.110;18.900;2024-03-29T19:12:24;20.90;;;18.10;;
35757;SDS011;21879;50.110;18.900;2024-03-29T19:22:31;21.30;;;16.70;;
35757;SDS011;21879;50.110;18.900;2024-03-29T19:32:37;19.80;;;14.40;;
35757;SDS011;21879;50.110;18.900;2024-03-29T19:42:44;16.80;;;13.90;;
35757;SDS011;21879;50.110;18.900;2024-03-29T19:52:50;16.50;;;12.90;;
35757;SDS011;21879;50.110;18.900;2024-03-29T20:02:57;12.70;;;11.40;;
35757;SDS011;21879;50.110;18.900;2024-03-29T20:13:04;15.20;;;10.30;;
35757;SDS011;21879;50.110;18.900;2024-03-29T20:23:11;12.40;;;10.50;;
35757;SDS011;21879;50.110;18.900;2024-03-29T20:33:18;11.50;;;9.30;;
35757;SDS011;21879;50.110;18.900;2024-03-29T20:43:25;11.50;;;8.50;;
35757;SDS011;21879;50.110;18.900;2024-03-29T20:53:31;11.50;;;8.60;;
35757;SDS011;21879;50.110;18.900;2024-03-29T21:03:38;11.30;;;9.40;;
35757;SDS011;21879;50.110;18.900;2024-03-29T21:14:02;9.60;;;7.80;;
35757;SDS011;21879;50.110;18.900;2024-03-29T21:24:09;9.40;;;7.30;;
35757;SDS011;21879;50.110;18.900;2024-03-29T21:34:20;11.00;;;7.20;;
35757;SDS011;21879;50.110;18.900;2024-03-29T21:44:27;9.80;;;7.20;;
35757;SDS011;21879;50.110;18.900;2024-03-29T21:54:34;8.60;;;6.70;;
35757;SDS011;21879;50.110;18.900;2024-03-29T22:04:41;9.70;;;7.30;;
35757;SDS011;21879;50.110;18.900;2024-03-29T22:14:48;8.00;;;5.70;;
35757;SDS011;21879;50.110;18.900;2024-03-29T22:24:56;8.20;;;6.10;;
35757;SDS011;21879;50.110;18.900;2024-03-29T22:35:04;6.80;;;5.40;;
35757;SDS011;21879;50.110;18.900;2024-03-29T22:45:11;7.70;;;5.30;;
35757;SDS011;21879;50.110;18.900;2024-03-29T22:55:17;7.60;;;5.80;;
35757;SDS011;21879;50.110;18.900;2024-03-29T23:05:24;5.70;;;4.60;;
35757;SDS011;21879;50.110;18.900;2024-03-29T23:15:31;7.30;;;5.00;;
35757;SDS011;21879;50.110;18.900;2024-03-29T23:25:40;7.60;;;4.80;;
35757;SDS011;21879;50.110;18.900;2024-03-29T23:35:52;5.00;;;3.50;;
35757;SDS011;21879;50.110;18.900;2024-03-29T23:45:59;5.80;;;4.00;;
35757;SDS011;21879;50.110;18.900;2024-03-29T23:56:08;4.40;;;3.50;;
